createdAt,value
2018-10-07T00:00:52.614Z,74.17
2018-10-07T00:03:20.681Z,73.80
2018-10-07T00:05:48.760Z,73.29
2018-10-07T00:08:16.829Z,73.72
2018-10-07T00:10:44.901Z,74.59
2018-10-07T00:13:12.965Z,73.95
2018-10-07T00:15:41.046Z,74.05
2018-10-07T00:18:09.117Z,73.75
2018-10-07T00:20:37.214Z,73.63
2018-10-07T00:23:05.281Z,74.40
2018-10-07T00:25:33.372Z,74.41
2018-10-07T00:28:01.441Z,74.46
2018-10-07T00:30:29.516Z,74.40
2018-10-07T00:32:57.600Z,74.63
2018-10-07T00:35:25.681Z,74.94
2018-10-07T00:37:53.750Z,74.77
2018-10-07T00:40:21.817Z,74.95
2018-10-07T00:42:49.883Z,75.12
2018-10-07T00:45:17.994Z,75.32
2018-10-07T00:47:46.063Z,75.61
2018-10-07T00:50:14.141Z,75.81
2018-10-07T00:52:42.222Z,75.96
2018-10-07T00:55:10.297Z,75.81
2018-10-07T00:57:38.365Z,75.50
2018-10-07T01:00:07.046Z,75.47
2018-10-07T01:02:35.113Z,75.90
2018-10-07T01:05:03.206Z,75.45
2018-10-07T01:07:31.277Z,75.07
2018-10-07T01:09:59.357Z,75.12
2018-10-07T01:12:27.438Z,74.50
2018-10-07T01:14:55.510Z,74.21
2018-10-07T01:17:23.574Z,73.09
2018-10-07T01:19:51.646Z,73.49
2018-10-07T01:22:19.708Z,73.44
2018-10-07T01:24:47.783Z,73.41
2018-10-07T01:27:15.856Z,73.38
2018-10-07T01:29:43.949Z,73.67
2018-10-07T01:32:12.021Z,73.30
2018-10-07T01:34:40.118Z,73.12
2018-10-07T01:37:08.180Z,73.27
2018-10-07T01:39:36.241Z,73.01
2018-10-07T01:42:04.305Z,73.54
2018-10-07T01:44:32.385Z,73.06
2018-10-07T01:47:00.457Z,73.37
2018-10-07T01:49:28.517Z,73.33
2018-10-07T01:51:56.581Z,73.17
2018-10-07T01:54:24.645Z,71.08
2018-10-07T01:56:52.722Z,72.63
2018-10-07T01:59:20.832Z,72.77
2018-10-07T02:01:48.868Z,72.48
2018-10-07T02:04:16.953Z,71.52
2018-10-07T02:06:45.110Z,72.20
2018-10-07T02:09:13.174Z,72.12
2018-10-07T02:11:41.278Z,73.03
2018-10-07T02:14:09.340Z,72.02
2018-10-07T02:16:37.418Z,71.94
2018-10-07T02:19:05.506Z,72.34
2018-10-07T02:21:33.741Z,71.80
2018-10-07T02:24:01.905Z,71.31
2018-10-07T02:26:30.013Z,72.00
2018-10-07T02:28:58.753Z,71.85
2018-10-07T02:31:26.835Z,71.46
2018-10-07T02:33:54.906Z,71.56
2018-10-07T02:36:22.973Z,71.50
2018-10-07T02:38:51.035Z,71.34
2018-10-07T02:41:19.112Z,71.88
2018-10-07T02:43:47.181Z,71.60
2018-10-07T02:46:15.267Z,72.21
2018-10-07T02:48:43.329Z,71.87
2018-10-07T02:51:11.798Z,71.45
2018-10-07T02:53:39.886Z,71.61
2018-10-07T02:56:07.965Z,72.33
2018-10-07T02:58:36.029Z,72.50
2018-10-07T03:01:04.202Z,72.52
2018-10-07T03:03:32.268Z,72.36
2018-10-07T03:06:00.337Z,72.12
2018-10-07T03:08:28.401Z,72.17
2018-10-07T03:10:56.533Z,72.17
2018-10-07T03:13:24.603Z,71.92
2018-10-07T03:15:52.673Z,71.82
2018-10-07T03:18:20.743Z,72.12
2018-10-07T03:20:48.815Z,71.96
2018-10-07T03:23:16.883Z,72.11
2018-10-07T03:25:44.990Z,72.34
2018-10-07T03:28:13.069Z,71.74
2018-10-07T03:30:41.145Z,72.55
2018-10-07T03:33:09.234Z,72.56
2018-10-07T03:35:37.298Z,72.21
2018-10-07T03:38:05.379Z,71.93
2018-10-07T03:40:33.449Z,72.00
2018-10-07T03:43:01.520Z,72.24
2018-10-07T03:45:29.585Z,72.16
2018-10-07T03:47:57.673Z,71.84
2018-10-07T03:50:25.797Z,71.83
2018-10-07T03:52:53.873Z,71.53
2018-10-07T03:55:22.026Z,72.20
2018-10-07T03:57:50.105Z,72.47
2018-10-07T04:00:18.186Z,71.50
2018-10-07T04:02:46.256Z,71.48
2018-10-07T04:05:14.326Z,71.85
2018-10-07T04:07:42.401Z,71.65
2018-10-07T04:10:10.473Z,71.90
2018-10-07T04:12:38.553Z,71.80
2018-10-07T04:15:06.677Z,71.31
2018-10-07T04:17:34.761Z,71.47
2018-10-07T04:20:02.835Z,71.30
2018-10-07T04:22:30.911Z,71.34
2018-10-07T04:24:58.970Z,71.71
2018-10-07T04:27:27.049Z,71.62
2018-10-07T04:29:55.113Z,71.22
2018-10-07T04:32:23.190Z,71.82
2018-10-07T04:34:51.260Z,71.34
2018-10-07T04:37:19.337Z,72.12
2018-10-07T04:39:47.457Z,71.76
2018-10-07T04:42:15.537Z,71.78
2018-10-07T04:44:43.597Z,71.13
2018-10-07T04:47:11.679Z,70.87
2018-10-07T04:49:39.747Z,70.90
2018-10-07T04:52:07.835Z,70.74
2018-10-07T04:54:35.921Z,71.02
2018-10-07T04:57:03.989Z,70.78
2018-10-07T04:59:32.061Z,71.41
2018-10-07T05:02:00.136Z,71.35
2018-10-07T05:04:28.188Z,71.00
2018-10-07T05:06:56.297Z,71.40
2018-10-07T05:09:24.372Z,70.73
2018-10-07T05:11:55.174Z,70.72
2018-10-07T05:14:23.226Z,70.77
2018-10-07T05:16:52.228Z,70.96
2018-10-07T05:19:20.336Z,70.88
2018-10-07T05:21:48.427Z,70.45
2018-10-07T05:24:16.540Z,70.40
2018-10-07T05:26:44.626Z,70.98
2018-10-07T05:29:12.706Z,70.52
2018-10-07T05:31:40.772Z,70.80
2018-10-07T05:34:08.853Z,70.75
2018-10-07T05:36:36.929Z,70.67
2018-10-07T05:39:07.153Z,70.12
2018-10-07T05:41:35.238Z,70.59
2018-10-07T05:44:03.323Z,70.71
2018-10-07T05:46:31.398Z,70.49
2018-10-07T05:48:59.481Z,70.52
2018-10-07T05:51:27.578Z,70.09
2018-10-07T05:53:55.686Z,70.42
2018-10-07T05:56:23.775Z,70.11
2018-10-07T05:58:53.601Z,70.63
2018-10-07T06:01:28.633Z,70.43
2018-10-07T06:04:47.874Z,70.72
2018-10-07T06:07:15.925Z,70.40
2018-10-07T06:09:43.996Z,70.31
2018-10-07T06:12:12.065Z,70.39
2018-10-07T06:15:55.293Z,70.87
2018-10-07T06:18:23.401Z,70.43
2018-10-07T06:20:51.475Z,70.22
2018-10-07T06:23:19.577Z,71.35
2018-10-07T06:25:47.636Z,70.96
2018-10-07T06:28:15.721Z,70.96
2018-10-07T06:30:43.808Z,70.82
2018-10-07T06:33:11.901Z,70.47
2018-10-07T06:35:39.991Z,70.99
2018-10-07T06:38:08.073Z,70.96
2018-10-07T06:40:36.149Z,70.69
2018-10-07T06:43:04.234Z,70.92
2018-10-07T06:45:32.400Z,71.08
2018-10-07T06:48:00.429Z,71.10
2018-10-07T06:50:28.515Z,69.91
2018-10-07T06:52:56.599Z,70.58
2018-10-07T06:55:24.676Z,69.99
2018-10-07T06:57:52.743Z,69.46
2018-10-07T07:00:20.815Z,69.12
2018-10-07T07:02:48.873Z,69.19
2018-10-07T07:05:16.952Z,68.70
2018-10-07T07:07:45.053Z,67.35
2018-10-07T07:10:13.152Z,66.82
2018-10-07T07:12:41.216Z,66.53
2018-10-07T07:15:09.282Z,66.46
2018-10-07T07:17:37.345Z,65.55
2018-10-07T07:20:05.444Z,64.50
2018-10-07T07:22:33.473Z,63.98
2018-10-07T07:25:01.574Z,63.49
2018-10-07T07:27:29.647Z,62.44
2018-10-07T07:29:57.729Z,62.17
2018-10-07T07:32:25.821Z,62.33
2018-10-07T07:34:53.921Z,62.09
2018-10-07T07:37:21.991Z,62.15
2018-10-07T07:39:50.097Z,61.40
2018-10-07T07:42:18.236Z,61.97
2018-10-07T07:44:46.267Z,61.52
2018-10-07T07:47:14.369Z,61.48
2018-10-07T07:49:42.453Z,61.31
2018-10-07T07:52:10.540Z,60.29
2018-10-07T07:54:38.641Z,61.11
2018-10-07T07:57:06.717Z,60.42
2018-10-07T07:59:34.834Z,60.57
2018-10-07T08:02:03.009Z,60.52
2018-10-07T08:04:31.106Z,59.71
2018-10-07T08:06:59.196Z,60.05
2018-10-07T08:09:27.285Z,59.49
2018-10-07T08:11:55.369Z,59.91
2018-10-07T08:14:23.446Z,59.89
2018-10-07T08:16:51.534Z,69.07
2018-10-07T08:19:19.601Z,70.95
2018-10-07T08:21:47.705Z,63.08
2018-10-07T08:24:15.837Z,63.72
2018-10-07T08:26:43.893Z,58.68
2018-10-07T08:29:11.969Z,58.71
2018-10-07T08:31:40.045Z,60.37
2018-10-07T08:34:08.114Z,58.99
2018-10-07T08:36:36.189Z,55.70
2018-10-07T08:39:05.557Z,57.63
2018-10-07T08:41:33.646Z,58.38
2018-10-07T08:44:01.711Z,58.14
2018-10-07T08:46:29.801Z,56.44
2018-10-07T08:48:57.867Z,57.47
2018-10-07T08:51:26.029Z,55.54
2018-10-07T08:53:54.090Z,55.33
2018-10-07T08:56:22.176Z,54.01
2018-10-07T08:58:50.253Z,52.69
2018-10-07T09:01:18.337Z,54.34
2018-10-07T09:03:46.405Z,54.27
2018-10-07T09:06:14.485Z,52.83
2018-10-07T09:08:42.540Z,52.70
2018-10-07T09:11:10.609Z,52.10
2018-10-07T09:13:38.670Z,53.19
2018-10-07T09:16:06.741Z,53.04
2018-10-07T09:18:35.089Z,52.71
2018-10-07T09:21:03.404Z,53.14
2018-10-07T09:23:31.646Z,52.93
2018-10-07T09:25:59.921Z,52.27
2018-10-07T09:28:27.990Z,52.41
2018-10-07T09:30:56.098Z,52.78
2018-10-07T09:33:24.193Z,51.82
2018-10-07T09:35:52.303Z,51.74
2018-10-07T09:38:20.375Z,51.85
2018-10-07T09:40:48.453Z,51.37
2018-10-07T09:43:16.569Z,52.12
2018-10-07T09:45:44.645Z,55.53
2018-10-07T09:48:12.718Z,52.36
2018-10-07T09:50:40.821Z,50.91
2018-10-07T09:53:08.886Z,50.64
2018-10-07T09:55:36.986Z,49.76
2018-10-07T09:58:05.121Z,50.03
2018-10-07T10:00:38.506Z,50.08
2018-10-07T10:03:06.643Z,49.77
2018-10-07T10:05:34.717Z,49.73
2018-10-07T10:08:02.860Z,50.20
2018-10-07T10:10:30.978Z,50.11
2018-10-07T10:12:59.089Z,49.92
2018-10-07T10:15:27.225Z,49.29
2018-10-07T10:18:01.010Z,49.16
2018-10-07T10:20:34.873Z,48.66
2018-10-07T10:23:10.261Z,47.68
2018-10-07T10:26:16.297Z,46.88
2018-10-07T10:28:52.646Z,45.87
2018-10-07T10:31:24.578Z,45.36
2018-10-07T10:34:02.897Z,45.73
2018-10-07T10:37:08.917Z,45.18
2018-10-07T10:39:52.595Z,44.52
2018-10-07T10:42:30.897Z,44.60
2018-10-07T10:45:00.659Z,49.30
2018-10-07T10:47:35.261Z,47.53
2018-10-07T10:50:41.301Z,45.80
2018-10-07T10:53:43.693Z,44.42
2018-10-07T10:56:20.834Z,43.08
2018-10-07T11:01:06.717Z,43.67
2018-10-07T11:03:42.750Z,40.59
2018-10-07T11:06:19.141Z,39.49
2018-10-07T11:08:59.618Z,39.87
2018-10-07T11:11:40.737Z,40.54
2018-10-07T11:16:27.012Z,40.17
2018-10-07T11:19:09.100Z,38.31
2018-10-07T11:22:20.297Z,39.35
2018-10-07T11:27:04.253Z,36.71
2018-10-07T11:30:39.917Z,37.59
2018-10-07T11:35:23.765Z,35.67
2018-10-07T11:37:56.461Z,35.50
2018-10-07T11:40:41.827Z,36.08
2018-10-07T11:43:18.549Z,35.94
2018-10-07T11:46:05.529Z,34.84
2018-10-07T11:48:43.378Z,35.28
2018-10-07T11:51:25.469Z,35.28
2018-10-07T11:53:56.843Z,35.47
2018-10-07T11:56:24.933Z,34.96
2018-10-07T11:58:53.093Z,33.28
2018-10-07T12:01:21.209Z,34.10
2018-10-07T12:03:49.277Z,34.28
2018-10-07T12:06:17.345Z,34.20
2018-10-07T12:08:45.487Z,34.29
2018-10-07T12:11:13.556Z,33.99
2018-10-07T12:13:41.700Z,33.55
2018-10-07T12:16:09.806Z,33.67
2018-10-07T12:18:37.898Z,33.75
2018-10-07T12:21:05.993Z,33.18
2018-10-07T12:23:34.378Z,33.21
2018-10-07T12:26:02.469Z,33.01
2018-10-07T12:28:30.586Z,32.69
2018-10-07T12:30:58.773Z,32.73
2018-10-07T12:33:26.868Z,32.32
2018-10-07T12:35:54.939Z,32.48
2018-10-07T12:38:23.232Z,32.32
2018-10-07T12:40:51.304Z,32.17
2018-10-07T12:43:19.370Z,31.98
2018-10-07T12:45:47.553Z,32.05
2018-10-07T12:48:15.621Z,32.01
2018-10-07T12:50:43.736Z,31.98
2018-10-07T12:53:11.819Z,31.73
2018-10-07T12:55:39.917Z,31.73
2018-10-07T12:58:07.985Z,31.99
2018-10-07T13:00:36.074Z,31.94
2018-10-07T13:03:04.160Z,31.91
2018-10-07T13:05:32.268Z,31.92
2018-10-07T13:08:00.361Z,31.41
2018-10-07T13:10:28.440Z,31.96
2018-10-07T13:12:56.519Z,32.01
2018-10-07T13:15:24.640Z,32.07
2018-10-07T13:17:52.709Z,32.36
2018-10-07T13:20:20.798Z,32.22
2018-10-07T13:22:48.884Z,32.65
2018-10-07T13:25:16.968Z,32.51
2018-10-07T13:27:45.579Z,32.89
2018-10-07T13:30:14.135Z,32.89
2018-10-07T13:32:42.933Z,33.09
2018-10-07T13:35:11.652Z,33.26
2018-10-07T13:37:40.362Z,33.28
2018-10-07T13:40:08.850Z,33.69
2018-10-07T13:42:37.451Z,33.65
2018-10-07T13:45:05.994Z,33.91
2018-10-07T13:47:34.711Z,34.01
2018-10-07T13:50:03.338Z,34.61
2018-10-07T13:52:31.948Z,34.37
2018-10-07T13:55:00.066Z,33.82
2018-10-07T13:57:28.212Z,34.51
2018-10-07T13:59:56.316Z,34.21
2018-10-07T14:02:24.432Z,34.53
2018-10-07T14:04:52.752Z,35.49
2018-10-07T14:07:20.838Z,35.55
2018-10-07T14:09:48.952Z,35.62
2018-10-07T14:12:17.036Z,35.69
2018-10-07T14:14:45.143Z,36.20
2018-10-07T14:17:13.283Z,35.99
2018-10-07T14:19:41.401Z,36.14
2018-10-07T14:22:09.498Z,36.50
2018-10-07T14:24:37.572Z,36.20
2018-10-07T14:27:05.682Z,36.43
2018-10-07T14:29:33.783Z,36.96
2018-10-07T14:32:01.888Z,36.62
2018-10-07T14:34:29.997Z,36.97
2018-10-07T14:36:58.093Z,37.07
2018-10-07T14:39:26.183Z,36.72
2018-10-07T14:41:54.286Z,37.13
2018-10-07T14:44:22.393Z,37.47
2018-10-07T14:46:50.505Z,37.46
2018-10-07T14:49:18.640Z,37.50
2018-10-07T14:51:46.740Z,37.72
2018-10-07T14:54:14.844Z,37.94
2018-10-07T14:56:42.945Z,38.20
2018-10-07T14:59:11.030Z,38.41
2018-10-07T15:01:39.122Z,38.84
2018-10-07T15:04:07.392Z,39.33
2018-10-07T15:06:35.480Z,39.43
2018-10-07T15:09:04.989Z,39.24
2018-10-07T15:11:33.076Z,39.30
2018-10-07T15:14:01.194Z,39.49
2018-10-07T15:16:29.242Z,40.08
2018-10-07T15:18:57.303Z,40.33
2018-10-07T15:21:25.381Z,40.33
2018-10-07T15:23:53.478Z,40.60
2018-10-07T15:26:21.565Z,41.16
2018-10-07T15:28:49.633Z,41.25
2018-10-07T15:31:17.698Z,41.73
2018-10-07T15:33:45.781Z,41.93
2018-10-07T15:36:13.861Z,41.93
2018-10-07T15:38:42.065Z,42.23
2018-10-07T15:41:10.130Z,42.64
2018-10-07T15:43:38.625Z,42.94
2018-10-07T15:46:06.705Z,42.72
2018-10-07T15:48:34.785Z,43.04
2018-10-07T15:51:02.841Z,43.65
2018-10-07T15:53:31.034Z,44.04
2018-10-07T15:55:59.117Z,43.63
2018-10-07T15:58:27.209Z,43.33
2018-10-07T16:00:55.319Z,43.94
2018-10-07T16:03:23.411Z,44.28
2018-10-07T16:05:51.513Z,44.62
2018-10-07T16:08:19.625Z,44.56
2018-10-07T16:10:47.717Z,45.96
2018-10-07T16:13:15.794Z,45.47
2018-10-07T16:15:43.937Z,46.10
2018-10-07T16:18:12.013Z,46.80
2018-10-07T16:20:40.119Z,47.02
2018-10-07T16:23:08.230Z,47.58
2018-10-07T16:25:36.309Z,48.27
2018-10-07T16:28:04.382Z,49.01
2018-10-07T16:30:32.460Z,49.31
2018-10-07T16:33:00.550Z,49.76
2018-10-07T16:35:28.646Z,50.00
2018-10-07T16:37:56.741Z,50.52
2018-10-07T16:40:24.822Z,50.54
2018-10-07T16:42:53.332Z,50.40
2018-10-07T16:45:21.403Z,50.87
2018-10-07T16:47:49.505Z,51.42
2018-10-07T16:50:17.577Z,52.43
2018-10-07T16:52:45.971Z,52.46
2018-10-07T16:55:14.030Z,52.40
2018-10-07T16:57:42.131Z,52.78
2018-10-07T17:00:10.207Z,53.38
2018-10-07T17:02:38.286Z,54.10
2018-10-07T17:05:06.370Z,53.73
2018-10-07T17:07:34.453Z,54.10
2018-10-07T17:10:02.535Z,53.97
2018-10-07T17:12:30.613Z,54.65
2018-10-07T17:14:58.717Z,55.02
2018-10-07T17:17:26.869Z,55.23
2018-10-07T17:19:54.949Z,55.37
2018-10-07T17:22:23.864Z,55.51
2018-10-07T17:24:52.027Z,56.15
2018-10-07T17:27:20.108Z,56.63
2018-10-07T17:29:48.192Z,56.57
2018-10-07T17:32:16.377Z,57.16
2018-10-07T17:34:44.466Z,56.98
2018-10-07T17:37:12.541Z,57.38
2018-10-07T17:39:40.621Z,57.49
2018-10-07T17:42:08.749Z,57.76
2018-10-07T17:44:36.828Z,57.24
2018-10-07T17:47:04.897Z,57.62
2018-10-07T17:49:32.968Z,58.38
2018-10-07T17:52:01.374Z,58.32
2018-10-07T17:54:29.461Z,58.10
2018-10-07T17:56:57.538Z,58.79
2018-10-07T17:59:25.622Z,59.56
2018-10-07T18:01:53.685Z,59.36
2018-10-07T18:04:21.773Z,59.41
2018-10-07T18:06:49.833Z,59.98
2018-10-07T18:09:17.913Z,60.07
2018-10-07T18:11:45.981Z,60.08
2018-10-07T18:14:14.114Z,59.98
2018-10-07T18:16:42.201Z,60.15
2018-10-07T18:19:10.405Z,60.26
2018-10-07T18:21:38.526Z,60.96
2018-10-07T18:24:06.600Z,61.02
2018-10-07T18:26:34.927Z,61.15
2018-10-07T18:29:03.008Z,61.31
2018-10-07T18:31:31.146Z,61.65
2018-10-07T18:33:59.270Z,61.48
2018-10-07T18:36:27.329Z,61.85
2018-10-07T18:38:55.459Z,62.38
2018-10-07T18:41:23.760Z,62.65
2018-10-07T18:43:51.842Z,62.45
2018-10-07T18:46:20.623Z,62.54
2018-10-07T18:48:48.803Z,62.70
2018-10-07T18:51:16.799Z,62.44
2018-10-07T18:53:44.893Z,62.65
2018-10-07T18:56:12.966Z,62.97
2018-10-07T18:58:41.043Z,63.37
2018-10-07T19:01:09.117Z,62.91
2018-10-07T19:03:37.245Z,63.43
2018-10-07T19:06:05.327Z,63.25
2018-10-07T19:08:33.458Z,64.14
2018-10-07T19:11:01.507Z,64.05
2018-10-07T19:13:29.616Z,63.75
2018-10-07T19:15:57.722Z,64.47
2018-10-07T19:18:25.851Z,64.42
2018-10-07T19:20:54.073Z,64.46
2018-10-07T19:23:22.095Z,64.64
2018-10-07T19:25:50.458Z,64.46
2018-10-07T19:28:18.578Z,64.33
2018-10-07T19:30:46.682Z,64.97
2018-10-07T19:33:14.777Z,64.84
2018-10-07T19:35:42.882Z,65.16
2018-10-07T19:38:10.965Z,65.37
2018-10-07T19:40:39.061Z,64.68
2018-10-07T19:43:07.141Z,65.27
2018-10-07T19:45:35.226Z,65.47
2018-10-07T19:48:03.301Z,65.66
2018-10-07T19:50:31.390Z,66.02
2018-10-07T19:52:59.470Z,65.75
2018-10-07T19:55:27.552Z,65.81
2018-10-07T19:57:55.681Z,66.36
2018-10-07T20:00:23.877Z,65.33
2018-10-07T20:02:51.973Z,65.63
2018-10-07T20:05:20.070Z,66.46
2018-10-07T20:07:48.162Z,66.30
2018-10-07T20:10:16.249Z,66.25
2018-10-07T20:12:44.314Z,65.97
2018-10-07T20:15:12.406Z,66.69
2018-10-07T20:17:40.518Z,66.21
2018-10-07T20:20:08.610Z,65.88
2018-10-07T20:22:36.685Z,67.07
2018-10-07T20:25:04.802Z,67.31
2018-10-07T20:27:32.872Z,66.72
2018-10-07T20:30:00.985Z,66.62
2018-10-07T20:32:29.088Z,66.01
2018-10-07T20:34:57.164Z,66.28
2018-10-07T20:37:25.305Z,66.73
2018-10-07T20:39:53.436Z,66.44
2018-10-07T20:42:21.545Z,66.79
2018-10-07T20:44:49.665Z,67.04
2018-10-07T20:47:17.751Z,66.87
2018-10-07T20:49:45.842Z,66.44
2018-10-07T20:52:13.995Z,66.57
2018-10-07T20:54:42.053Z,66.37
2018-10-07T20:57:10.156Z,66.51
2018-10-07T20:59:38.222Z,66.98
2018-10-07T21:02:06.309Z,66.44
2018-10-07T21:04:34.397Z,66.73
2018-10-07T21:07:02.531Z,67.53
2018-10-07T21:09:30.595Z,67.25
2018-10-07T21:11:58.713Z,67.26
2018-10-07T21:14:26.741Z,68.06
2018-10-07T21:16:54.836Z,67.69
2018-10-07T21:19:22.889Z,67.70
2018-10-07T21:21:50.953Z,67.28
2018-10-07T21:24:19.087Z,67.67
2018-10-07T21:26:47.156Z,68.15
2018-10-07T21:29:15.226Z,67.33
2018-10-07T21:31:43.328Z,68.14
2018-10-07T21:34:11.398Z,67.76
2018-10-07T21:36:39.460Z,68.28
2018-10-07T21:39:08.481Z,67.60
2018-10-07T21:41:36.739Z,68.35
2018-10-07T21:44:04.717Z,68.13
2018-10-07T21:46:32.828Z,68.01
2018-10-07T21:49:00.890Z,68.05
2018-10-07T21:51:28.957Z,67.55
2018-10-07T21:53:57.041Z,68.87
2018-10-07T21:56:25.114Z,68.29
2018-10-07T21:58:53.173Z,68.55
2018-10-07T22:01:21.283Z,68.14
2018-10-07T22:03:49.325Z,67.93
2018-10-07T22:06:17.401Z,69.11
2018-10-07T22:08:45.825Z,68.46
2018-10-07T22:11:13.990Z,68.33
2018-10-07T22:13:42.050Z,68.64
2018-10-07T22:16:10.130Z,68.62
2018-10-07T22:18:45.102Z,68.23
2018-10-07T22:21:13.174Z,68.09
2018-10-07T22:23:41.235Z,69.13
2018-10-07T22:26:09.329Z,69.63
2018-10-07T22:28:37.401Z,69.29
2018-10-07T22:31:05.678Z,69.57
2018-10-07T22:33:33.754Z,69.69
2018-10-07T22:36:01.824Z,69.58
2018-10-07T22:38:29.893Z,69.15
2018-10-07T22:40:57.951Z,69.06
2018-10-07T22:43:26.041Z,68.62
2018-10-07T22:45:54.113Z,69.68
2018-10-07T22:48:22.160Z,69.33
2018-10-07T22:50:50.281Z,69.41
2018-10-07T22:53:18.337Z,68.82
2018-10-07T22:55:46.384Z,69.25
2018-10-07T22:58:14.443Z,69.12
2018-10-07T23:00:42.501Z,69.20
2018-10-07T23:03:11.663Z,68.94
2018-10-07T23:05:39.707Z,69.73
2018-10-07T23:08:07.797Z,69.37
2018-10-07T23:10:35.855Z,69.06
2018-10-07T23:13:03.921Z,69.66
2018-10-07T23:15:31.980Z,69.43
2018-10-07T23:18:00.048Z,69.30
2018-10-07T23:20:28.101Z,70.10
2018-10-07T23:22:56.148Z,69.54
2018-10-07T23:25:24.189Z,70.08
2018-10-07T23:27:52.243Z,69.89
2018-10-07T23:30:20.300Z,69.55
2018-10-07T23:32:48.356Z,69.50
2018-10-07T23:35:16.423Z,69.83
2018-10-07T23:37:44.461Z,69.02
2018-10-07T23:40:12.500Z,70.09
2018-10-07T23:42:40.548Z,69.38
2018-10-07T23:45:08.596Z,70.56
2018-10-07T23:47:36.641Z,69.47
2018-10-07T23:50:04.689Z,70.40
2018-10-07T23:52:32.744Z,70.80
2018-10-07T23:55:00.799Z,70.67
2018-10-07T23:57:28.879Z,70.43
2018-10-07T23:59:56.949Z,69.67
